sensor_id;sensor_type;location;lat;lon;timestamp;P1;durP1;ratioP1;P2;durP2;ratioP2
13122;SDS011;6627;50.920;12.050;2022-07-04T00:02:04;3.77;;;2.50;;
13122;SDS011;6627;50.920;12.050;2022-07-04T00:04:31;2.37;;;2.17;;
13122;SDS011;6627;50.920;12.050;2022-07-04T00:06:59;2.37;;;2.00;;
13122;SDS011;6627;50.920;12.050;2022-07-04T00:09:46;4.70;;;2.37;;
13122;SDS011;6627;50.920;12.050;2022-07-04T00:12:33;4.30;;;2.03;;
13122;SDS011;6627;50.920;12.050;2022-07-04T00:15:22;4.97;;;1.87;;
13122;SDS011;6627;50.920;12.050;2022-07-04T00:18:09;2.73;;;2.07;;
13122;SDS011;6627;50.920;12.050;2022-07-04T00:20:55;2.13;;;1.93;;
13122;SDS011;6627;50.920;12.050;2022-07-04T00:23:44;2.83;;;1.80;;
13122;SDS011;6627;50.920;12.050;2022-07-04T00:26:31;5.50;;;1.80;;
13122;SDS011;6627;50.920;12.050;2022-07-04T00:29:17;4.97;;;2.20;;
13122;SDS011;6627;50.920;12.050;2022-07-04T00:32:06;3.60;;;2.20;;
13122;SDS011;6627;50.920;12.050;2022-07-04T00:34:54;5.43;;;2.30;;
13122;SDS011;6627;50.920;12.050;2022-07-04T00:37:41;2.63;;;2.00;;
13122;SDS011;6627;50.920;12.050;2022-07-04T00:40:27;2.87;;;1.93;;
13122;SDS011;6627;50.920;12.050;2022-07-04T00:43:20;4.60;;;1.90;;
13122;SDS011;6627;50.920;12.050;2022-07-04T00:45:49;4.37;;;2.20;;
13122;SDS011;6627;50.920;12.050;2022-07-04T00:48:18;5.97;;;2.50;;
13122;SDS011;6627;50.920;12.050;2022-07-04T00:50:46;6.13;;;2.07;;
13122;SDS011;6627;50.920;12.050;2022-07-04T00:53:14;3.93;;;2.27;;
13122;SDS011;6627;50.920;12.050;2022-07-04T00:55:45;5.00;;;2.20;;
13122;SDS011;6627;50.920;12.050;2022-07-04T00:58:13;4.13;;;2.17;;
13122;SDS011;6627;50.920;12.050;2022-07-04T01:00:41;2.90;;;1.90;;
13122;SDS011;6627;50.920;12.050;2022-07-04T01:03:08;5.17;;;2.30;;
13122;SDS011;6627;50.920;12.050;2022-07-04T01:05:37;3.60;;;2.30;;
13122;SDS011;6627;50.920;12.050;2022-07-04T01:08:05;3.30;;;2.50;;
13122;SDS011;6627;50.920;12.050;2022-07-04T01:10:33;4.43;;;2.50;;
13122;SDS011;6627;50.920;12.050;2022-07-04T01:13:00;3.40;;;2.43;;
13122;SDS011;6627;50.920;12.050;2022-07-04T01:15:27;5.27;;;2.43;;
13122;SDS011;6627;50.920;12.050;2022-07-04T01:17:54;5.40;;;2.43;;
13122;SDS011;6627;50.920;12.050;2022-07-04T01:20:23;6.40;;;2.43;;
13122;SDS011;6627;50.920;12.050;2022-07-04T01:22:50;6.03;;;2.33;;
13122;SDS011;6627;50.920;12.050;2022-07-04T01:25:17;3.03;;;2.43;;
13122;SDS011;6627;50.920;12.050;2022-07-04T01:27:45;3.13;;;2.43;;
13122;SDS011;6627;50.920;12.050;2022-07-04T01:30:12;5.03;;;2.50;;
13122;SDS011;6627;50.920;12.050;2022-07-04T01:32:39;4.40;;;3.20;;
13122;SDS011;6627;50.920;12.050;2022-07-04T01:35:08;5.90;;;2.37;;
13122;SDS011;6627;50.920;12.050;2022-07-04T01:37:37;5.27;;;3.00;;
13122;SDS011;6627;50.920;12.050;2022-07-04T01:40:05;4.40;;;3.00;;
13122;SDS011;6627;50.920;12.050;2022-07-04T01:42:33;6.50;;;2.63;;
13122;SDS011;6627;50.920;12.050;2022-07-04T01:45:00;7.13;;;2.50;;
13122;SDS011;6627;50.920;12.050;2022-07-04T01:47:28;4.20;;;2.40;;
13122;SDS011;6627;50.920;12.050;2022-07-04T01:49:56;5.63;;;2.43;;
13122;SDS011;6627;50.920;12.050;2022-07-04T01:52:23;6.57;;;2.73;;
13122;SDS011;6627;50.920;12.050;2022-07-04T01:54:51;5.57;;;2.87;;
13122;SDS011;6627;50.920;12.050;2022-07-04T01:57:18;4.57;;;2.47;;
13122;SDS011;6627;50.920;12.050;2022-07-04T01:59:45;4.30;;;2.70;;
13122;SDS011;6627;50.920;12.050;2022-07-04T02:02:30;5.13;;;2.80;;
13122;SDS011;6627;50.920;12.050;2022-07-04T02:04:58;2.90;;;2.60;;
13122;SDS011;6627;50.920;12.050;2022-07-04T02:07:25;3.00;;;2.40;;
13122;SDS011;6627;50.920;12.050;2022-07-04T02:09:53;5.63;;;2.60;;
13122;SDS011;6627;50.920;12.050;2022-07-04T02:12:20;4.87;;;2.93;;
13122;SDS011;6627;50.920;12.050;2022-07-04T02:15:05;4.07;;;2.83;;
13122;SDS011;6627;50.920;12.050;2022-07-04T02:17:33;5.57;;;2.53;;
13122;SDS011;6627;50.920;12.050;2022-07-04T02:20:01;5.77;;;2.80;;
13122;SDS011;6627;50.920;12.050;2022-07-04T02:22:30;6.00;;;2.93;;
13122;SDS011;6627;50.920;12.050;2022-07-04T02:24:59;4.43;;;3.33;;
13122;SDS011;6627;50.920;12.050;2022-07-04T02:27:26;4.47;;;3.17;;
13122;SDS011;6627;50.920;12.050;2022-07-04T02:29:53;5.80;;;3.10;;
13122;SDS011;6627;50.920;12.050;2022-07-04T02:32:20;3.50;;;3.03;;
13122;SDS011;6627;50.920;12.050;2022-07-04T02:34:47;5.27;;;3.40;;
13122;SDS011;6627;50.920;12.050;2022-07-04T02:37:14;3.60;;;3.30;;
13122;SDS011;6627;50.920;12.050;2022-07-04T02:39:42;4.97;;;3.50;;
13122;SDS011;6627;50.920;12.050;2022-07-04T02:42:11;5.30;;;3.33;;
13122;SDS011;6627;50.920;12.050;2022-07-04T02:44:38;3.90;;;3.43;;
13122;SDS011;6627;50.920;12.050;2022-07-04T02:47:06;5.30;;;3.37;;
13122;SDS011;6627;50.920;12.050;2022-07-04T02:49:33;4.90;;;3.67;;
13122;SDS011;6627;50.920;12.050;2022-07-04T02:52:01;5.50;;;3.60;;
13122;SDS011;6627;50.920;12.050;2022-07-04T02:54:28;4.07;;;3.40;;
13122;SDS011;6627;50.920;12.050;2022-07-04T02:56:55;5.53;;;3.60;;
13122;SDS011;6627;50.920;12.050;2022-07-04T02:59:23;6.30;;;3.97;;
13122;SDS011;6627;50.920;12.050;2022-07-04T03:01:51;4.80;;;3.60;;
13122;SDS011;6627;50.920;12.050;2022-07-04T03:04:18;6.57;;;3.97;;
13122;SDS011;6627;50.920;12.050;2022-07-04T03:06:45;4.47;;;3.73;;
13122;SDS011;6627;50.920;12.050;2022-07-04T03:09:12;6.07;;;4.10;;
13122;SDS011;6627;50.920;12.050;2022-07-04T03:11:39;5.00;;;4.00;;
13122;SDS011;6627;50.920;12.050;2022-07-04T03:14:06;6.50;;;4.13;;
13122;SDS011;6627;50.920;12.050;2022-07-04T03:16:35;5.50;;;3.77;;
13122;SDS011;6627;50.920;12.050;2022-07-04T03:19:02;4.83;;;3.60;;
13122;SDS011;6627;50.920;12.050;2022-07-04T03:21:29;5.70;;;3.87;;
13122;SDS011;6627;50.920;12.050;2022-07-04T03:23:57;5.60;;;3.90;;
13122;SDS011;6627;50.920;12.050;2022-07-04T03:26:24;7.13;;;3.80;;
13122;SDS011;6627;50.920;12.050;2022-07-04T03:28:52;6.97;;;3.20;;
13122;SDS011;6627;50.920;12.050;2022-07-04T03:31:20;4.07;;;3.27;;
13122;SDS011;6627;50.920;12.050;2022-07-04T03:33:48;5.43;;;3.70;;
13122;SDS011;6627;50.920;12.050;2022-07-04T03:36:16;5.80;;;3.57;;
13122;SDS011;6627;50.920;12.050;2022-07-04T03:38:43;4.13;;;3.67;;
13122;SDS011;6627;50.920;12.050;2022-07-04T03:41:11;5.27;;;3.90;;
13122;SDS011;6627;50.920;12.050;2022-07-04T03:43:39;4.67;;;3.90;;
13122;SDS011;6627;50.920;12.050;2022-07-04T03:46:06;5.27;;;4.07;;
13122;SDS011;6627;50.920;12.050;2022-07-04T03:48:33;5.30;;;3.83;;
13122;SDS011;6627;50.920;12.050;2022-07-04T03:51:02;5.50;;;4.00;;
13122;SDS011;6627;50.920;12.050;2022-07-04T03:53:29;7.80;;;4.50;;
13122;SDS011;6627;50.920;12.050;2022-07-04T03:55:56;5.77;;;4.10;;
13122;SDS011;6627;50.920;12.050;2022-07-04T03:58:23;4.40;;;4.00;;
13122;SDS011;6627;50.920;12.050;2022-07-04T04:00:50;7.30;;;4.27;;
13122;SDS011;6627;50.920;12.050;2022-07-04T04:03:17;8.43;;;4.50;;
13122;SDS011;6627;50.920;12.050;2022-07-04T04:06:04;8.10;;;4.30;;
13122;SDS011;6627;50.920;12.050;2022-07-04T04:08:31;5.47;;;4.33;;
13122;SDS011;6627;50.920;12.050;2022-07-04T04:10:58;8.67;;;4.50;;
13122;SDS011;6627;50.920;12.050;2022-07-04T04:13:25;9.50;;;4.40;;
13122;SDS011;6627;50.920;12.050;2022-07-04T04:15:52;5.63;;;3.90;;
13122;SDS011;6627;50.920;12.050;2022-07-04T04:18:19;6.07;;;4.23;;
13122;SDS011;6627;50.920;12.050;2022-07-04T04:20:46;5.07;;;3.80;;
13122;SDS011;6627;50.920;12.050;2022-07-04T04:23:15;6.50;;;4.10;;
13122;SDS011;6627;50.920;12.050;2022-07-04T04:25:42;5.60;;;3.90;;
13122;SDS011;6627;50.920;12.050;2022-07-04T04:28:09;8.07;;;4.17;;
13122;SDS011;6627;50.920;12.050;2022-07-04T04:30:36;6.90;;;4.10;;
13122;SDS011;6627;50.920;12.050;2022-07-04T04:33:04;5.57;;;4.30;;
13122;SDS011;6627;50.920;12.050;2022-07-04T04:35:31;6.50;;;4.70;;
13122;SDS011;6627;50.920;12.050;2022-07-04T04:37:58;6.80;;;4.07;;
13122;SDS011;6627;50.920;12.050;2022-07-04T04:40:26;6.63;;;4.67;;
13122;SDS011;6627;50.920;12.050;2022-07-04T04:42:53;10.40;;;4.47;;
13122;SDS011;6627;50.920;12.050;2022-07-04T04:45:20;6.67;;;4.73;;
13122;SDS011;6627;50.920;12.050;2022-07-04T04:47:48;5.77;;;5.20;;
13122;SDS011;6627;50.920;12.050;2022-07-04T04:50:15;10.63;;;5.70;;
13122;SDS011;6627;50.920;12.050;2022-07-04T04:52:42;8.40;;;5.57;;
13122;SDS011;6627;50.920;12.050;2022-07-04T04:55:09;5.43;;;4.93;;
13122;SDS011;6627;50.920;12.050;2022-07-04T04:57:38;7.90;;;4.90;;
13122;SDS011;6627;50.920;12.050;2022-07-04T05:00:05;6.63;;;4.93;;
13122;SDS011;6627;50.920;12.050;2022-07-04T05:02:34;6.30;;;4.63;;
13122;SDS011;6627;50.920;12.050;2022-07-04T05:05:01;6.13;;;4.30;;
13122;SDS011;6627;50.920;12.050;2022-07-04T05:07:28;7.77;;;4.27;;
13122;SDS011;6627;50.920;12.050;2022-07-04T05:09:55;14.23;;;3.43;;
13122;SDS011;6627;50.920;12.050;2022-07-04T05:12:24;5.57;;;3.57;;
13122;SDS011;6627;50.920;12.050;2022-07-04T05:14:53;6.27;;;3.80;;
13122;SDS011;6627;50.920;12.050;2022-07-04T05:17:21;11.03;;;3.60;;
13122;SDS011;6627;50.920;12.050;2022-07-04T05:19:49;8.97;;;3.50;;
13122;SDS011;6627;50.920;12.050;2022-07-04T05:22:16;5.33;;;3.13;;
13122;SDS011;6627;50.920;12.050;2022-07-04T05:24:44;7.43;;;3.67;;
13122;SDS011;6627;50.920;12.050;2022-07-04T05:27:11;8.57;;;3.30;;
13122;SDS011;6627;50.920;12.050;2022-07-04T05:29:38;5.87;;;3.03;;
13122;SDS011;6627;50.920;12.050;2022-07-04T05:32:07;5.63;;;3.07;;
13122;SDS011;6627;50.920;12.050;2022-07-04T05:34:34;5.40;;;2.50;;
13122;SDS011;6627;50.920;12.050;2022-07-04T05:37:02;6.63;;;2.40;;
13122;SDS011;6627;50.920;12.050;2022-07-04T05:39:30;5.03;;;2.47;;
13122;SDS011;6627;50.920;12.050;2022-07-04T05:41:57;4.03;;;2.40;;
13122;SDS011;6627;50.920;12.050;2022-07-04T05:44:24;5.87;;;2.50;;
13122;SDS011;6627;50.920;12.050;2022-07-04T05:46:53;9.80;;;2.57;;
13122;SDS011;6627;50.920;12.050;2022-07-04T05:49:22;3.87;;;2.17;;
13122;SDS011;6627;50.920;12.050;2022-07-04T05:51:49;3.93;;;2.07;;
13122;SDS011;6627;50.920;12.050;2022-07-04T05:54:16;4.63;;;2.70;;
13122;SDS011;6627;50.920;12.050;2022-07-04T05:56:44;4.43;;;1.93;;
13122;SDS011;6627;50.920;12.050;2022-07-04T05:59:11;5.43;;;2.30;;
13122;SDS011;6627;50.920;12.050;2022-07-04T06:01:38;8.23;;;2.13;;
13122;SDS011;6627;50.920;12.050;2022-07-04T06:04:06;5.90;;;2.17;;
13122;SDS011;6627;50.920;12.050;2022-07-04T06:06:34;6.83;;;1.80;;
13122;SDS011;6627;50.920;12.050;2022-07-04T06:09:02;8.00;;;1.80;;
13122;SDS011;6627;50.920;12.050;2022-07-04T06:11:29;4.93;;;1.83;;
13122;SDS011;6627;50.920;12.050;2022-07-04T06:13:58;5.37;;;2.00;;
13122;SDS011;6627;50.920;12.050;2022-07-04T06:16:25;2.57;;;1.60;;
13122;SDS011;6627;50.920;12.050;2022-07-04T06:18:52;2.93;;;1.53;;
13122;SDS011;6627;50.920;12.050;2022-07-04T06:21:19;5.40;;;2.00;;
13122;SDS011;6627;50.920;12.050;2022-07-04T06:23:48;3.73;;;1.60;;
13122;SDS011;6627;50.920;12.050;2022-07-04T06:26:15;3.83;;;1.47;;
13122;SDS011;6627;50.920;12.050;2022-07-04T06:28:42;5.27;;;1.70;;
13122;SDS011;6627;50.920;12.050;2022-07-04T06:31:10;4.53;;;1.33;;
13122;SDS011;6627;50.920;12.050;2022-07-04T06:33:38;2.97;;;1.30;;
13122;SDS011;6627;50.920;12.050;2022-07-04T06:36:19;6.13;;;1.80;;
13122;SDS011;6627;50.920;12.050;2022-07-04T06:38:46;4.47;;;1.30;;
13122;SDS011;6627;50.920;12.050;2022-07-04T06:41:15;4.60;;;1.43;;
13122;SDS011;6627;50.920;12.050;2022-07-04T06:43:42;2.43;;;1.43;;
13122;SDS011;6627;50.920;12.050;2022-07-04T06:46:09;3.23;;;1.33;;
13122;SDS011;6627;50.920;12.050;2022-07-04T06:48:36;1.90;;;1.10;;
13122;SDS011;6627;50.920;12.050;2022-07-04T06:51:03;2.93;;;1.20;;
13122;SDS011;6627;50.920;12.050;2022-07-04T06:53:31;1.43;;;1.10;;
13122;SDS011;6627;50.920;12.050;2022-07-04T06:55:58;2.03;;;1.13;;
13122;SDS011;6627;50.920;12.050;2022-07-04T06:58:26;3.03;;;1.13;;
13122;SDS011;6627;50.920;12.050;2022-07-04T07:00:53;3.73;;;1.10;;
13122;SDS011;6627;50.920;12.050;2022-07-04T07:03:21;1.53;;;1.00;;
13122;SDS011;6627;50.920;12.050;2022-07-04T07:05:48;3.73;;;1.03;;
13122;SDS011;6627;50.920;12.050;2022-07-04T07:08:15;3.63;;;1.30;;
13122;SDS011;6627;50.920;12.050;2022-07-04T07:10:42;3.87;;;1.23;;
13122;SDS011;6627;50.920;12.050;2022-07-04T07:13:10;1.77;;;1.00;;
13122;SDS011;6627;50.920;12.050;2022-07-04T07:15:38;1.50;;;1.10;;
13122;SDS011;6627;50.920;12.050;2022-07-04T07:18:05;2.83;;;1.00;;
13122;SDS011;6627;50.920;12.050;2022-07-04T07:20:33;2.70;;;1.10;;
13122;SDS011;6627;50.920;12.050;2022-07-04T07:23:01;5.27;;;1.47;;
13122;SDS011;6627;50.920;12.050;2022-07-04T07:25:29;4.17;;;1.30;;
13122;SDS011;6627;50.920;12.050;2022-07-04T07:27:56;1.80;;;1.07;;
13122;SDS011;6627;50.920;12.050;2022-07-04T07:30:24;2.20;;;1.20;;
13122;SDS011;6627;50.920;12.050;2022-07-04T07:32:53;2.10;;;1.10;;
13122;SDS011;6627;50.920;12.050;2022-07-04T07:35:20;3.23;;;1.10;;
13122;SDS011;6627;50.920;12.050;2022-07-04T07:37:47;2.43;;;1.30;;
13122;SDS011;6627;50.920;12.050;2022-07-04T07:40:14;4.10;;;0.97;;
13122;SDS011;6627;50.920;12.050;2022-07-04T07:42:42;1.43;;;1.07;;
13122;SDS011;6627;50.920;12.050;2022-07-04T07:45:09;1.90;;;1.13;;
13122;SDS011;6627;50.920;12.050;2022-07-04T07:47:36;2.53;;;1.10;;
13122;SDS011;6627;50.920;12.050;2022-07-04T07:50:05;1.83;;;1.13;;
13122;SDS011;6627;50.920;12.050;2022-07-04T07:52:33;1.73;;;1.10;;
13122;SDS011;6627;50.920;12.050;2022-07-04T07:55:00;3.17;;;1.30;;
13122;SDS011;6627;50.920;12.050;2022-07-04T07:57:27;1.80;;;1.13;;
13122;SDS011;6627;50.920;12.050;2022-07-04T07:59:55;1.30;;;1.00;;
13122;SDS011;6627;50.920;12.050;2022-07-04T08:02:23;2.13;;;1.20;;
13122;SDS011;6627;50.920;12.050;2022-07-04T08:05:07;2.10;;;1.20;;
13122;SDS011;6627;50.920;12.050;2022-07-04T08:07:35;4.33;;;1.30;;
13122;SDS011;6627;50.920;12.050;2022-07-04T08:10:03;2.67;;;1.10;;
13122;SDS011;6627;50.920;12.050;2022-07-04T08:12:31;1.87;;;1.17;;
13122;SDS011;6627;50.920;12.050;2022-07-04T08:14:59;2.40;;;1.30;;
13122;SDS011;6627;50.920;12.050;2022-07-04T08:17:26;1.63;;;1.10;;
13122;SDS011;6627;50.920;12.050;2022-07-04T08:19:54;3.20;;;1.30;;
13122;SDS011;6627;50.920;12.050;2022-07-04T08:22:22;5.90;;;1.47;;
13122;SDS011;6627;50.920;12.050;2022-07-04T08:24:49;2.37;;;1.20;;
13122;SDS011;6627;50.920;12.050;2022-07-04T08:27:16;1.63;;;1.00;;
13122;SDS011;6627;50.920;12.050;2022-07-04T08:29:43;2.53;;;1.20;;
13122;SDS011;6627;50.920;12.050;2022-07-04T08:32:10;2.20;;;1.30;;
13122;SDS011;6627;50.920;12.050;2022-07-04T08:34:38;1.80;;;1.33;;
13122;SDS011;6627;50.920;12.050;2022-07-04T08:37:05;2.13;;;1.20;;
13122;SDS011;6627;50.920;12.050;2022-07-04T08:39:34;1.63;;;1.30;;
13122;SDS011;6627;50.920;12.050;2022-07-04T08:42:02;3.77;;;1.50;;
13122;SDS011;6627;50.920;12.050;2022-07-04T08:44:38;1.47;;;1.00;;
13122;SDS011;6627;50.920;12.050;2022-07-04T08:47:07;2.53;;;1.30;;
13122;SDS011;6627;50.920;12.050;2022-07-04T08:49:36;5.43;;;1.40;;
13122;SDS011;6627;50.920;12.050;2022-07-04T08:52:09;2.00;;;1.30;;
13122;SDS011;6627;50.920;12.050;2022-07-04T08:54:42;2.37;;;1.43;;
13122;SDS011;6627;50.920;12.050;2022-07-04T08:57:41;3.73;;;1.30;;
13122;SDS011;6627;50.920;12.050;2022-07-04T09:00:27;1.90;;;1.10;;
13122;SDS011;6627;50.920;12.050;2022-07-04T09:02:55;6.13;;;1.33;;
13122;SDS011;6627;50.920;12.050;2022-07-04T09:05:27;3.37;;;1.33;;
13122;SDS011;6627;50.920;12.050;2022-07-04T09:07:54;1.83;;;1.37;;
13122;SDS011;6627;50.920;12.050;2022-07-04T09:10:23;2.97;;;1.43;;
13122;SDS011;6627;50.920;12.050;2022-07-04T09:12:51;3.07;;;1.23;;
13122;SDS011;6627;50.920;12.050;2022-07-04T09:15:19;2.53;;;1.20;;
13122;SDS011;6627;50.920;12.050;2022-07-04T09:17:47;2.73;;;1.10;;
13122;SDS011;6627;50.920;12.050;2022-07-04T09:20:15;1.40;;;1.30;;
13122;SDS011;6627;50.920;12.050;2022-07-04T09:22:46;2.17;;;1.40;;
13122;SDS011;6627;50.920;12.050;2022-07-04T09:25:15;5.37;;;1.20;;
13122;SDS011;6627;50.920;12.050;2022-07-04T09:27:46;2.77;;;1.30;;
13122;SDS011;6627;50.920;12.050;2022-07-04T09:30:17;4.53;;;1.30;;
13122;SDS011;6627;50.920;12.050;2022-07-04T09:32:47;4.30;;;1.30;;
13122;SDS011;6627;50.920;12.050;2022-07-04T09:35:18;2.90;;;1.40;;
13122;SDS011;6627;50.920;12.050;2022-07-04T09:37:49;3.37;;;1.20;;
13122;SDS011;6627;50.920;12.050;2022-07-04T09:40:22;3.40;;;1.33;;
13122;SDS011;6627;50.920;12.050;2022-07-04T09:42:54;3.30;;;1.30;;
13122;SDS011;6627;50.920;12.050;2022-07-04T09:45:23;2.90;;;1.20;;
13122;SDS011;6627;50.920;12.050;2022-07-04T09:47:52;3.33;;;1.60;;
13122;SDS011;6627;50.920;12.050;2022-07-04T09:50:23;2.17;;;1.17;;
13122;SDS011;6627;50.920;12.050;2022-07-04T09:52:53;3.33;;;1.40;;
13122;SDS011;6627;50.920;12.050;2022-07-04T09:55:25;3.03;;;1.23;;
13122;SDS011;6627;50.920;12.050;2022-07-04T09:57:55;1.23;;;1.07;;
13122;SDS011;6627;50.920;12.050;2022-07-04T10:00:26;1.70;;;1.20;;
13122;SDS011;6627;50.920;12.050;2022-07-04T10:02:56;2.97;;;1.13;;
13122;SDS011;6627;50.920;12.050;2022-07-04T10:05:44;3.23;;;1.47;;
13122;SDS011;6627;50.920;12.050;2022-07-04T10:08:12;2.37;;;1.20;;
13122;SDS011;6627;50.920;12.050;2022-07-04T10:10:40;3.00;;;1.30;;
13122;SDS011;6627;50.920;12.050;2022-07-04T10:13:11;2.30;;;1.43;;
13122;SDS011;6627;50.920;12.050;2022-07-04T10:15:39;2.47;;;1.27;;
13122;SDS011;6627;50.920;12.050;2022-07-04T10:18:09;4.47;;;1.40;;
13122;SDS011;6627;50.920;12.050;2022-07-04T10:20:36;4.57;;;1.37;;
13122;SDS011;6627;50.920;12.050;2022-07-04T10:23:03;4.67;;;1.50;;
13122;SDS011;6627;50.920;12.050;2022-07-04T10:25:32;3.40;;;1.60;;
13122;SDS011;6627;50.920;12.050;2022-07-04T10:27:59;2.00;;;1.40;;
13122;SDS011;6627;50.920;12.050;2022-07-04T10:30:28;5.97;;;1.60;;
13122;SDS011;6627;50.920;12.050;2022-07-04T10:32:59;2.83;;;1.40;;
13122;SDS011;6627;50.920;12.050;2022-07-04T10:38:20;4.77;;;1.20;;
13122;SDS011;6627;50.920;12.050;2022-07-04T10:40:49;1.77;;;1.20;;
13122;SDS011;6627;50.920;12.050;2022-07-04T10:46:32;2.93;;;1.20;;
13122;SDS011;6627;50.920;12.050;2022-07-04T10:49:03;2.37;;;1.23;;
13122;SDS011;6627;50.920;12.050;2022-07-04T10:51:38;2.27;;;1.23;;
13122;SDS011;6627;50.920;12.050;2022-07-04T10:54:09;3.60;;;1.37;;
13122;SDS011;6627;50.920;12.050;2022-07-04T10:56:40;4.23;;;1.50;;
13122;SDS011;6627;50.920;12.050;2022-07-04T10:59:18;2.37;;;1.30;;
13122;SDS011;6627;50.920;12.050;2022-07-04T11:01:54;2.93;;;1.50;;
13122;SDS011;6627;50.920;12.050;2022-07-04T11:04:51;4.13;;;1.43;;
13122;SDS011;6627;50.920;12.050;2022-07-04T11:10:24;2.03;;;1.30;;
13122;SDS011;6627;50.920;12.050;2022-07-04T11:13:05;2.63;;;1.40;;
13122;SDS011;6627;50.920;12.050;2022-07-04T11:16:01;2.00;;;1.30;;
13122;SDS011;6627;50.920;12.050;2022-07-04T11:18:41;1.97;;;1.10;;
13122;SDS011;6627;50.920;12.050;2022-07-04T11:21:17;4.07;;;1.20;;
13122;SDS011;6627;50.920;12.050;2022-07-04T11:23:49;3.43;;;1.43;;
13122;SDS011;6627;50.920;12.050;2022-07-04T11:26:20;2.33;;;1.23;;
13122;SDS011;6627;50.920;12.050;2022-07-04T11:28:49;4.10;;;1.50;;
13122;SDS011;6627;50.920;12.050;2022-07-04T11:31:16;2.83;;;1.70;;
13122;SDS011;6627;50.920;12.050;2022-07-04T11:33:46;2.73;;;1.30;;
13122;SDS011;6627;50.920;12.050;2022-07-04T11:36:14;2.10;;;1.23;;
13122;SDS011;6627;50.920;12.050;2022-07-04T11:38:50;2.87;;;1.50;;
13122;SDS011;6627;50.920;12.050;2022-07-04T11:41:21;1.93;;;1.50;;
13122;SDS011;6627;50.920;12.050;2022-07-04T11:44:08;1.87;;;1.30;;
13122;SDS011;6627;50.920;12.050;2022-07-04T11:47:06;4.40;;;1.40;;
13122;SDS011;6627;50.920;12.050;2022-07-04T11:49:42;2.93;;;1.60;;
13122;SDS011;6627;50.920;12.050;2022-07-04T11:52:12;3.70;;;1.50;;
13122;SDS011;6627;50.920;12.050;2022-07-04T11:54:41;1.70;;;1.40;;
13122;SDS011;6627;50.920;12.050;2022-07-04T11:57:10;2.87;;;1.50;;
13122;SDS011;6627;50.920;12.050;2022-07-04T11:59:50;3.73;;;1.70;;
13122;SDS011;6627;50.920;12.050;2022-07-04T12:02:20;1.80;;;1.40;;
13122;SDS011;6627;50.920;12.050;2022-07-04T12:04:49;4.37;;;1.50;;
13122;SDS011;6627;50.920;12.050;2022-07-04T12:07:17;3.53;;;1.40;;
13122;SDS011;6627;50.920;12.050;2022-07-04T12:09:47;6.00;;;1.80;;
13122;SDS011;6627;50.920;12.050;2022-07-04T12:12:15;9.77;;;1.40;;
13122;SDS011;6627;50.920;12.050;2022-07-04T12:17:33;3.37;;;1.50;;
13122;SDS011;6627;50.920;12.050;2022-07-04T12:20:10;2.10;;;1.67;;
13122;SDS011;6627;50.920;12.050;2022-07-04T12:22:40;3.73;;;1.57;;
13122;SDS011;6627;50.920;12.050;2022-07-04T12:27:58;8.07;;;1.60;;
13122;SDS011;6627;50.920;12.050;2022-07-04T12:30:28;1.73;;;1.40;;
13122;SDS011;6627;50.920;12.050;2022-07-04T12:32:58;2.57;;;1.30;;
13122;SDS011;6627;50.920;12.050;2022-07-04T12:35:36;2.00;;;1.50;;
13122;SDS011;6627;50.920;12.050;2022-07-04T12:38:08;3.43;;;1.60;;
13122;SDS011;6627;50.920;12.050;2022-07-04T12:40:49;5.03;;;1.43;;
13122;SDS011;6627;50.920;12.050;2022-07-04T12:43:19;2.93;;;1.50;;
13122;SDS011;6627;50.920;12.050;2022-07-04T12:45:47;2.87;;;1.53;;
13122;SDS011;6627;50.920;12.050;2022-07-04T12:48:17;2.50;;;1.80;;
13122;SDS011;6627;50.920;12.050;2022-07-04T12:50:50;4.87;;;1.50;;
13122;SDS011;6627;50.920;12.050;2022-07-04T12:53:18;2.80;;;1.50;;
13122;SDS011;6627;50.920;12.050;2022-07-04T12:55:47;3.00;;;1.83;;
13122;SDS011;6627;50.920;12.050;2022-07-04T12:58:16;2.27;;;1.37;;
13122;SDS011;6627;50.920;12.050;2022-07-04T13:00:43;1.63;;;1.40;;
13122;SDS011;6627;50.920;12.050;2022-07-04T13:03:10;3.60;;;1.60;;
13122;SDS011;6627;50.920;12.050;2022-07-04T13:05:37;3.83;;;1.50;;
13122;SDS011;6627;50.920;12.050;2022-07-04T13:08:06;3.67;;;1.50;;
13122;SDS011;6627;50.920;12.050;2022-07-04T13:10:33;2.77;;;1.60;;
13122;SDS011;6627;50.920;12.050;2022-07-04T13:13:01;3.90;;;1.60;;
13122;SDS011;6627;50.920;12.050;2022-07-04T13:15:28;3.77;;;1.57;;
13122;SDS011;6627;50.920;12.050;2022-07-04T13:17:56;4.03;;;1.60;;
13122;SDS011;6627;50.920;12.050;2022-07-04T13:20:23;4.80;;;1.33;;
13122;SDS011;6627;50.920;12.050;2022-07-04T13:22:51;3.63;;;1.60;;
13122;SDS011;6627;50.920;12.050;2022-07-04T13:25:19;3.30;;;1.40;;
13122;SDS011;6627;50.920;12.050;2022-07-04T13:27:47;3.53;;;1.50;;
13122;SDS011;6627;50.920;12.050;2022-07-04T13:30:14;4.90;;;1.40;;
13122;SDS011;6627;50.920;12.050;2022-07-04T13:32:41;1.50;;;1.37;;
13122;SDS011;6627;50.920;12.050;2022-07-04T13:35:08;1.67;;;1.40;;
13122;SDS011;6627;50.920;12.050;2022-07-04T13:37:36;2.70;;;1.43;;
13122;SDS011;6627;50.920;12.050;2022-07-04T13:40:04;2.57;;;1.50;;
13122;SDS011;6627;50.920;12.050;2022-07-04T13:42:34;3.07;;;1.30;;
13122;SDS011;6627;50.920;12.050;2022-07-04T13:45:19;2.33;;;1.47;;
13122;SDS011;6627;50.920;12.050;2022-07-04T13:47:47;3.97;;;1.40;;
13122;SDS011;6627;50.920;12.050;2022-07-04T13:50:14;1.40;;;1.27;;
13122;SDS011;6627;50.920;12.050;2022-07-04T13:52:41;4.10;;;1.40;;
13122;SDS011;6627;50.920;12.050;2022-07-04T13:55:10;1.80;;;1.33;;
13122;SDS011;6627;50.920;12.050;2022-07-04T13:57:38;7.43;;;1.50;;
13122;SDS011;6627;50.920;12.050;2022-07-04T14:00:06;3.47;;;1.70;;
13122;SDS011;6627;50.920;12.050;2022-07-04T14:02:34;3.40;;;1.50;;
13122;SDS011;6627;50.920;12.050;2022-07-04T14:05:02;1.50;;;1.40;;
13122;SDS011;6627;50.920;12.050;2022-07-04T14:07:30;4.73;;;1.40;;
13122;SDS011;6627;50.920;12.050;2022-07-04T14:09:58;3.77;;;1.50;;
13122;SDS011;6627;50.920;12.050;2022-07-04T14:12:26;3.00;;;1.50;;
13122;SDS011;6627;50.920;12.050;2022-07-04T14:14:54;1.60;;;1.27;;
13122;SDS011;6627;50.920;12.050;2022-07-04T14:17:21;3.20;;;1.30;;
13122;SDS011;6627;50.920;12.050;2022-07-04T14:19:49;6.60;;;1.60;;
13122;SDS011;6627;50.920;12.050;2022-07-04T14:22:16;1.80;;;1.38;;
13122;SDS011;6627;50.920;12.050;2022-07-04T14:24:43;2.73;;;1.30;;
13122;SDS011;6627;50.920;12.050;2022-07-04T14:27:10;2.23;;;1.10;;
13122;SDS011;6627;50.920;12.050;2022-07-04T14:29:37;3.57;;;1.40;;
13122;SDS011;6627;50.920;12.050;2022-07-04T14:32:07;4.63;;;1.20;;
13122;SDS011;6627;50.920;12.050;2022-07-04T14:34:35;1.90;;;1.50;;
13122;SDS011;6627;50.920;12.050;2022-07-04T14:37:02;2.10;;;1.23;;
13122;SDS011;6627;50.920;12.050;2022-07-04T14:39:30;5.18;;;1.30;;
13122;SDS011;6627;50.920;12.050;2022-07-04T14:41:57;2.43;;;1.30;;
13122;SDS011;6627;50.920;12.050;2022-07-04T14:44:24;2.00;;;1.20;;
13122;SDS011;6627;50.920;12.050;2022-07-04T14:46:51;1.47;;;1.30;;
13122;SDS011;6627;50.920;12.050;2022-07-04T14:49:20;2.33;;;1.40;;
13122;SDS011;6627;50.920;12.050;2022-07-04T14:51:47;1.97;;;1.20;;
13122;SDS011;6627;50.920;12.050;2022-07-04T14:54:14;2.97;;;1.13;;
13122;SDS011;6627;50.920;12.050;2022-07-04T14:56:41;1.90;;;1.20;;
13122;SDS011;6627;50.920;12.050;2022-07-04T14:59:08;3.17;;;1.40;;
13122;SDS011;6627;50.920;12.050;2022-07-04T15:01:35;8.27;;;1.63;;
13122;SDS011;6627;50.920;12.050;2022-07-04T15:04:03;3.67;;;1.10;;
13122;SDS011;6627;50.920;12.050;2022-07-04T15:06:31;1.57;;;1.30;;
13122;SDS011;6627;50.920;12.050;2022-07-04T15:08:59;2.80;;;1.23;;
13122;SDS011;6627;50.920;12.050;2022-07-04T15:11:28;5.13;;;1.57;;
13122;SDS011;6627;50.920;12.050;2022-07-04T15:13:55;4.10;;;1.50;;
13122;SDS011;6627;50.920;12.050;2022-07-04T15:16:22;1.43;;;1.20;;
13122;SDS011;6627;50.920;12.050;2022-07-04T15:18:49;4.73;;;1.50;;